Time;durP1;ratioP1;P1;durP2;ratioP2;P2;SDS_P1;SDS_P2;PMS_P1;PMS_P2;Temp;Humidity;BMP_temperature;BMP_pressure;BME280_temperature;BME280_humidity;BME280_pressure;Samples;Min_cycle;Max_cycle;Signal;HPM_P1;HPM_P2
2022/01/31 00:01:03;;;;;;;8.43;2.70;;;16.80;59.90;;;;;;5134893;27;20047;-79
2022/01/31 00:03:30;;;;;;;8.98;2.70;;;16.70;59.90;;;;;;5134623;27;20035;-80
2022/01/31 00:05:56;;;;;;;9.45;3.05;;;16.80;59.90;;;;;;5135053;27;20076;-79
2022/01/31 00:08:24;;;;;;;11.80;2.50;;;16.70;59.80;;;;;;5134958;27;20031;-79
2022/01/31 00:10:50;;;;;;;7.30;2.55;;;16.70;59.80;;;;;;5128428;27;20088;-78
2022/01/31 00:13:38;;;;;;;8.38;2.88;;;16.70;59.90;;;;;;5134831;27;20475;-78
2022/01/31 00:16:07;;;;;;;10.98;2.80;;;16.70;59.80;;;;;;5134512;27;20069;-79
2022/01/31 00:18:32;;;;;;;10.90;3.03;;;16.60;59.80;;;;;;5132325;27;20591;-79
2022/01/31 00:20:58;;;;;;;11.90;3.50;;;16.60;59.80;;;;;;5134794;27;20019;-79
2022/01/31 00:23:23;;;;;;;8.70;3.25;;;16.60;59.80;;;;;;5134208;27;20048;-79
2022/01/31 00:25:49;;;;;;;8.93;2.40;;;16.50;59.80;;;;;;5135140;27;20080;-79
2022/01/31 00:28:15;;;;;;;8.43;3.03;;;16.60;59.80;;;;;;5134582;27;20031;-79
2022/01/31 00:30:41;;;;;;;8.40;2.35;;;16.50;59.80;;;;;;5134048;27;20016;-79
2022/01/31 00:33:07;;;;;;;6.45;2.40;;;16.50;59.90;;;;;;5135348;27;20028;-78
2022/01/31 00:35:33;;;;;;;10.98;3.20;;;16.50;59.90;;;;;;5134373;27;20507;-79
2022/01/31 00:37:58;;;;;;;7.55;2.75;;;16.40;59.80;;;;;;5134845;27;20152;-79
2022/01/31 00:40:24;;;;;;;8.20;2.25;;;16.40;59.80;;;;;;5127731;27;20102;-79
2022/01/31 00:42:50;;;;;;;6.13;1.75;;;16.40;59.80;;;;;;5114818;27;20027;-79
2022/01/31 00:47:46;;;;;;;7.40;2.45;;;16.30;59.80;;;;;;5133104;27;20026;-78
2022/01/31 00:50:13;;;;;;;8.20;2.40;;;16.40;59.80;;;;;;5133613;27;20059;-79
2022/01/31 00:52:42;;;;;;;6.10;2.45;;;16.30;59.90;;;;;;5134057;27;20106;-79
2022/01/31 00:55:10;;;;;;;8.00;2.63;;;16.30;59.90;;;;;;5133703;27;20148;-79
2022/01/31 00:57:36;;;;;;;7.80;2.58;;;16.20;59.80;;;;;;5134515;27;20039;-79
2022/01/31 01:00:03;;;;;;;8.48;2.55;;;16.20;59.90;;;;;;5115783;27;20111;-79
2022/01/31 01:02:30;;;;;;;8.48;2.30;;;16.20;60.00;;;;;;5133239;27;20042;-79
2022/01/31 01:04:55;;;;;;;9.02;2.80;;;16.20;60.00;;;;;;5134110;27;20027;-79
2022/01/31 01:07:22;;;;;;;7.72;2.00;;;16.20;60.00;;;;;;5133495;27;20023;-79
2022/01/31 01:09:48;;;;;;;5.40;2.15;;;16.10;60.00;;;;;;5133256;27;20035;-79
2022/01/31 01:12:16;;;;;;;6.60;2.38;;;16.10;60.00;;;;;;5133440;27;20023;-79
2022/01/31 01:14:43;;;;;;;8.63;2.15;;;16.10;60.00;;;;;;5134000;27;20046;-79
2022/01/31 01:17:09;;;;;;;10.32;2.70;;;16.10;60.00;;;;;;5132069;27;20015;-79
2022/01/31 01:19:34;;;;;;;8.00;2.60;;;16.10;60.10;;;;;;5129675;27;20035;-79
2022/01/31 01:22:00;;;;;;;6.18;2.60;;;16.00;60.40;;;;;;5133106;27;20060;-79
2022/01/31 01:24:26;;;;;;;8.82;2.33;;;16.10;60.20;;;;;;5133482;27;20065;-79
2022/01/31 01:26:52;;;;;;;10.27;2.60;;;16.00;60.10;;;;;;5133469;27;20055;-79
2022/01/31 01:29:19;;;;;;;7.15;1.95;;;16.00;60.20;;;;;;5133386;27;20038;-79
2022/01/31 01:31:46;;;;;;;7.45;2.45;;;16.00;60.40;;;;;;5132928;27;20058;-79
2022/01/31 01:34:12;;;;;;;9.57;2.83;;;16.00;60.40;;;;;;5132727;27;20046;-79
2022/01/31 01:36:38;;;;;;;10.05;2.60;;;16.00;60.50;;;;;;5133964;27;20019;-79
2022/01/31 01:39:05;;;;;;;9.02;2.05;;;15.90;60.40;;;;;;5133033;27;20477;-78
2022/01/31 01:41:31;;;;;;;8.10;2.67;;;15.90;60.50;;;;;;5132616;27;20498;-78
2022/01/31 01:43:57;;;;;;;7.15;2.60;;;15.90;60.60;;;;;;5132973;27;20050;-79
2022/01/31 01:46:22;;;;;;;10.43;2.05;;;15.90;60.60;;;;;;5132091;27;20056;-79
2022/01/31 01:48:48;;;;;;;8.02;2.20;;;15.90;60.70;;;;;;5132253;27;20518;-79
2022/01/31 01:51:15;;;;;;;6.40;1.83;;;15.90;60.80;;;;;;5132344;27;20501;-79
2022/01/31 01:53:41;;;;;;;8.45;2.47;;;15.80;60.80;;;;;;5133265;27;20551;-79
2022/01/31 01:56:08;;;;;;;7.70;2.40;;;15.80;60.80;;;;;;5133152;27;20019;-79
2022/01/31 01:58:41;;;;;;;9.07;2.53;;;15.80;60.90;;;;;;5133597;27;20591;-79
2022/01/31 02:01:08;;;;;;;6.75;2.47;;;15.80;60.90;;;;;;5132847;27;20546;-79
2022/01/31 02:03:36;;;;;;;4.60;1.80;;;15.80;61.00;;;;;;5133381;27;20502;-79
2022/01/31 02:06:05;;;;;;;6.13;2.22;;;15.80;60.90;;;;;;5132806;27;20050;-79
2022/01/31 02:11:08;;;;;;;6.57;2.20;;;15.80;60.80;;;;;;5348192;22;20050;-76
2022/01/31 02:13:36;;;;;;;8.70;1.73;;;15.80;60.80;;;;;;4974901;28;20034;-75
2022/01/31 02:16:03;;;;;;;7.40;1.45;;;15.80;60.80;;;;;;4993008;28;20014;-79
2022/01/31 02:18:30;;;;;;;6.22;1.85;;;15.80;60.80;;;;;;4993218;28;20105;-76
2022/01/31 02:20:56;;;;;;;6.47;1.92;;;15.90;60.80;;;;;;4992451;28;20385;-75
2022/01/31 02:23:23;;;;;;;3.50;1.17;;;15.80;60.80;;;;;;4992745;28;20026;-75
2022/01/31 02:25:55;;;;;;;8.50;1.90;;;15.80;60.80;;;;;;4992783;28;20023;-75
2022/01/31 02:28:24;;;;;;;6.20;2.03;;;15.90;60.80;;;;;;4992984;28;20066;-75
2022/01/31 02:30:50;;;;;;;6.20;1.67;;;15.80;60.80;;;;;;4992666;28;20027;-76
2022/01/31 02:33:18;;;;;;;6.10;1.98;;;15.90;60.90;;;;;;5000483;28;20026;-78
2022/01/31 02:35:45;;;;;;;8.10;1.90;;;15.90;60.90;;;;;;5010058;28;20037;-75
2022/01/31 02:38:11;;;;;;;5.35;1.60;;;15.90;61.00;;;;;;5009935;28;20029;-75
2022/01/31 02:40:36;;;;;;;6.72;1.95;;;15.90;61.00;;;;;;5009098;28;20400;-75
2022/01/31 02:43:02;;;;;;;4.15;1.70;;;15.90;61.00;;;;;;4996067;28;20116;-76
2022/01/31 02:45:30;;;;;;;4.40;1.63;;;15.90;61.00;;;;;;4974195;28;20501;-75
2022/01/31 02:47:58;;;;;;;5.88;1.55;;;15.90;61.00;;;;;;4994378;28;20049;-77
2022/01/31 02:50:24;;;;;;;5.63;1.58;;;15.90;61.00;;;;;;4974380;28;20045;-75
2022/01/31 02:52:59;;;;;;;5.97;1.30;;;16.00;61.10;;;;;;4993403;28;20033;-75
2022/01/31 02:55:25;;;;;;;4.70;1.38;;;15.90;61.00;;;;;;5011946;28;20029;-75
2022/01/31 02:57:50;;;;;;;5.45;1.33;;;16.00;61.00;;;;;;4991906;28;20037;-75
2022/01/31 03:00:16;;;;;;;8.25;1.88;;;16.00;61.10;;;;;;5010029;28;20101;-75
2022/01/31 03:02:42;;;;;;;5.97;1.70;;;16.00;61.00;;;;;;5009768;28;20025;-77
2022/01/31 03:05:08;;;;;;;5.78;1.25;;;16.00;61.10;;;;;;5010293;28;20022;-74
2022/01/31 03:07:34;;;;;;;5.03;1.45;;;16.10;61.10;;;;;;5010911;28;20038;-75
2022/01/31 03:10:01;;;;;;;4.88;1.45;;;16.00;61.00;;;;;;4994947;28;20038;-75
2022/01/31 03:12:28;;;;;;;3.85;1.50;;;16.10;61.10;;;;;;4975156;28;20025;-74
2022/01/31 03:14:53;;;;;;;3.30;1.23;;;16.10;61.10;;;;;;4974809;28;20581;-74
2022/01/31 03:17:19;;;;;;;4.60;1.48;;;16.10;61.10;;;;;;5007092;28;20101;-75
2022/01/31 03:19:52;;;;;;;4.25;1.45;;;16.10;61.00;;;;;;5011680;28;20037;-76
2022/01/31 03:22:19;;;;;;;5.97;1.63;;;16.10;61.00;;;;;;4996638;28;20026;-79
2022/01/31 03:24:45;;;;;;;4.00;1.15;;;16.10;61.00;;;;;;4974949;28;20508;-75
2022/01/31 03:27:10;;;;;;;4.03;1.35;;;16.10;61.10;;;;;;5003244;28;20030;-78
2022/01/31 03:29:36;;;;;;;5.85;2.15;;;16.20;61.20;;;;;;5011673;28;20026;-76
2022/01/31 03:32:02;;;;;;;6.95;1.35;;;16.20;61.20;;;;;;4999219;28;20022;-77
2022/01/31 03:34:28;;;;;;;5.03;1.77;;;16.20;61.10;;;;;;4991990;28;20030;-74
2022/01/31 03:36:53;;;;;;;4.30;1.15;;;16.20;61.10;;;;;;4992162;28;20026;-75
2022/01/31 03:39:19;;;;;;;4.45;1.42;;;16.20;61.10;;;;;;4991047;28;20033;-74
2022/01/31 03:41:45;;;;;;;3.20;1.10;;;16.20;61.00;;;;;;4974904;28;20022;-76
2022/01/31 03:44:10;;;;;;;5.03;1.45;;;16.20;60.90;;;;;;4991865;28;20037;-77
2022/01/31 03:46:38;;;;;;;3.78;1.08;;;16.20;60.90;;;;;;5001470;28;20124;-77
2022/01/31 03:49:04;;;;;;;2.55;1.08;;;16.20;60.90;;;;;;5011372;28;20108;-75
2022/01/31 03:51:30;;;;;;;3.38;1.15;;;16.20;60.80;;;;;;5009828;28;20497;-78
2022/01/31 03:53:56;;;;;;;6.22;1.13;;;16.20;60.80;;;;;;5006053;28;20030;-77
2022/01/31 03:56:22;;;;;;;3.53;1.00;;;16.20;60.80;;;;;;4991447;28;20026;-76
2022/01/31 03:58:47;;;;;;;4.50;1.45;;;16.20;60.80;;;;;;4992804;28;20034;-75
2022/01/31 04:01:13;;;;;;;3.45;1.00;;;16.30;60.80;;;;;;4991357;28;20529;-77
2022/01/31 04:03:39;;;;;;;4.45;1.15;;;16.30;60.80;;;;;;4986956;28;20037;-76
2022/01/31 04:06:05;;;;;;;3.67;1.05;;;16.30;60.70;;;;;;5012940;28;20084;-75
2022/01/31 04:08:31;;;;;;;3.65;1.08;;;16.30;60.60;;;;;;5007381;28;20045;-75
2022/01/31 04:10:57;;;;;;;2.25;0.77;;;16.30;60.60;;;;;;4977741;28;20034;-77
2022/01/31 04:13:23;;;;;;;4.55;1.20;;;16.30;60.60;;;;;;4994892;28;20037;-75
2022/01/31 04:15:49;;;;;;;6.75;1.08;;;16.30;60.60;;;;;;4977538;28;20023;-78
2022/01/31 04:18:15;;;;;;;2.55;0.90;;;16.30;60.60;;;;;;4977626;28;20022;-80
2022/01/31 04:20:41;;;;;;;3.85;1.17;;;16.30;61.30;;;;;;4994959;28;20490;-75
2022/01/31 04:23:12;;;;;;;3.80;1.27;;;16.30;60.60;;;;;;4994882;28;20021;-76
2022/01/31 04:25:52;;;;;;;4.32;1.15;;;16.30;60.60;;;;;;4994389;28;20037;-75
2022/01/31 04:28:24;;;;;;;3.58;1.00;;;16.30;60.60;;;;;;5009473;28;20374;-74
2022/01/31 04:33:18;;;;;;;1.85;0.70;;;16.30;60.40;;;;;;4995140;28;20437;-75
2022/01/31 04:35:44;;;;;;;3.53;0.88;;;16.30;60.40;;;;;;5013854;28;20030;-74
2022/01/31 04:38:10;;;;;;;4.03;0.90;;;16.30;60.30;;;;;;4993001;28;20042;-75
2022/01/31 04:40:35;;;;;;;2.17;0.82;;;16.30;60.30;;;;;;4994659;28;20026;-75
2022/01/31 04:43:01;;;;;;;2.53;0.80;;;16.30;60.30;;;;;;4978670;28;20037;-75
2022/01/31 04:45:27;;;;;;;2.53;0.82;;;16.30;60.30;;;;;;5012921;28;20022;-76
2022/01/31 04:47:52;;;;;;;4.03;1.02;;;16.30;60.20;;;;;;5012780;28;20034;-76
2022/01/31 04:50:18;;;;;;;3.17;0.88;;;16.30;60.20;;;;;;4982841;28;20035;-76
2022/01/31 04:52:43;;;;;;;3.75;1.17;;;16.30;60.10;;;;;;4990148;28;20061;-76
2022/01/31 04:55:10;;;;;;;3.83;0.82;;;16.30;60.10;;;;;;4994501;28;20433;-76
2022/01/31 04:57:36;;;;;;;3.42;1.17;;;16.30;60.10;;;;;;4996282;28;20068;-75
2022/01/31 05:00:05;;;;;;;3.63;0.95;;;16.40;60.10;;;;;;5014239;28;20026;-75
2022/01/31 05:02:31;;;;;;;2.20;0.80;;;16.40;60.10;;;;;;5013184;28;20034;-75
2022/01/31 05:04:57;;;;;;;3.00;0.80;;;16.30;60.00;;;;;;5012235;28;20026;-75
2022/01/31 05:07:22;;;;;;;2.13;0.70;;;16.30;60.00;;;;;;4995736;28;20397;-74
2022/01/31 05:09:48;;;;;;;3.78;0.90;;;16.30;60.00;;;;;;5004735;28;20041;-75
2022/01/31 05:12:14;;;;;;;1.45;0.60;;;16.40;60.00;;;;;;4994782;28;20032;-76
2022/01/31 05:14:40;;;;;;;3.78;0.88;;;16.30;60.00;;;;;;4994064;28;20449;-75
2022/01/31 05:17:06;;;;;;;4.32;0.95;;;16.30;60.00;;;;;;5007307;28;20034;-76
2022/01/31 05:19:31;;;;;;;3.50;0.82;;;16.30;59.90;;;;;;5009389;28;20033;-74
2022/01/31 05:21:57;;;;;;;3.10;0.85;;;16.30;59.90;;;;;;4977362;28;20030;-79
2022/01/31 05:24:23;;;;;;;2.80;1.13;;;16.30;59.90;;;;;;4976327;28;20125;-76
2022/01/31 05:26:50;;;;;;;3.08;1.08;;;16.30;59.80;;;;;;4993634;28;20029;-75
2022/01/31 05:29:20;;;;;;;1.98;0.80;;;16.30;59.80;;;;;;4991890;28;20046;-74
2022/01/31 05:31:46;;;;;;;2.97;1.02;;;16.30;59.70;;;;;;4993670;28;20045;-78
2022/01/31 05:34:12;;;;;;;3.05;0.77;;;16.30;59.70;;;;;;4996066;28;20089;-76
2022/01/31 05:36:42;;;;;;;5.85;1.08;;;16.30;59.70;;;;;;4994580;28;20022;-75
2022/01/31 05:39:07;;;;;;;2.75;0.90;;;16.30;59.70;;;;;;5006203;28;20557;-74
2022/01/31 05:41:33;;;;;;;3.50;0.95;;;16.40;59.70;;;;;;5011622;28;20104;-77
2022/01/31 05:43:59;;;;;;;2.10;0.75;;;16.30;59.70;;;;;;5003867;28;20053;-78
2022/01/31 05:46:25;;;;;;;3.10;0.75;;;16.40;59.70;;;;;;4982023;28;20058;-76
2022/01/31 05:48:51;;;;;;;1.73;0.70;;;16.40;59.70;;;;;;4993059;28;20081;-75
2022/01/31 05:51:22;;;;;;;2.70;0.80;;;16.40;59.70;;;;;;4997744;28;20021;-76
2022/01/31 05:53:50;;;;;;;2.95;0.77;;;16.40;59.70;;;;;;5010845;28;20033;-80
2022/01/31 05:56:17;;;;;;;4.15;1.17;;;16.40;60.30;;;;;;4990525;28;20018;-79
2022/01/31 05:58:44;;;;;;;2.33;0.70;;;16.40;59.70;;;;;;4993136;28;20033;-77
2022/01/31 06:01:10;;;;;;;3.30;0.88;;;16.40;59.70;;;;;;4985089;28;20113;-79
2022/01/31 06:03:37;;;;;;;1.88;0.75;;;16.40;59.60;;;;;;5013028;28;20058;-79
2022/01/31 06:06:04;;;;;;;2.63;0.65;;;16.40;59.60;;;;;;5012304;28;20028;-78
2022/01/31 06:08:30;;;;;;;2.83;0.85;;;16.50;59.50;;;;;;4994079;28;20399;-79
2022/01/31 06:10:56;;;;;;;2.53;0.95;;;16.50;59.40;;;;;;5010730;28;20037;-81
2022/01/31 06:13:28;;;;;;;2.13;0.55;;;16.50;59.40;;;;;;5011640;28;20025;-80
2022/01/31 06:15:54;;;;;;;2.10;0.98;;;16.60;59.30;;;;;;4999604;28;20061;-81
2022/01/31 06:18:20;;;;;;;3.75;0.73;;;16.60;59.30;;;;;;5011235;28;20481;-81
2022/01/31 06:20:46;;;;;;;2.53;0.90;;;16.60;59.20;;;;;;4983647;28;20038;-78
2022/01/31 06:23:12;;;;;;;1.60;0.63;;;16.60;59.20;;;;;;4975670;28;20385;-74
2022/01/31 06:25:38;;;;;;;2.22;0.60;;;16.60;59.10;;;;;;4975588;28;20030;-75
2022/01/31 06:28:06;;;;;;;4.95;0.98;;;16.70;59.10;;;;;;4993175;28;20042;-78
2022/01/31 06:30:32;;;;;;;2.88;0.63;;;16.70;59.00;;;;;;4978700;28;20026;-78
2022/01/31 06:32:58;;;;;;;2.75;0.98;;;16.80;59.00;;;;;;4978967;28;20026;-78
2022/01/31 06:35:24;;;;;;;3.25;1.25;;;16.80;59.00;;;;;;4998914;28;20104;-76
2022/01/31 06:37:53;;;;;;;2.05;0.77;;;16.80;58.90;;;;;;4992656;28;20370;-78
2022/01/31 06:40:19;;;;;;;4.63;1.30;;;16.90;59.00;;;;;;4992876;28;20478;-78
2022/01/31 06:42:45;;;;;;;2.58;0.75;;;16.90;59.00;;;;;;4992528;28;20080;-78
2022/01/31 06:45:11;;;;;;;4.65;0.93;;;16.90;59.00;;;;;;4974921;28;20117;-75
2022/01/31 06:47:37;;;;;;;2.60;0.60;;;16.90;59.00;;;;;;4992649;28;20105;-77
2022/01/31 06:50:06;;;;;;;4.07;1.17;;;16.90;59.10;;;;;;4992479;28;20034;-77
2022/01/31 06:52:34;;;;;;;2.38;0.68;;;17.00;59.40;;;;;;4992374;28;20026;-76
2022/01/31 06:55:04;;;;;;;5.90;0.70;;;17.00;59.60;;;;;;4992389;28;20053;-77
2022/01/31 06:57:33;;;;;;;3.08;0.80;;;17.00;59.80;;;;;;4992392;28;20026;-76
2022/01/31 07:00:07;;;;;;;4.68;0.70;;;17.00;59.90;;;;;;4992939;28;20025;-76
2022/01/31 07:02:33;;;;;;;3.17;0.80;;;17.10;59.90;;;;;;4992205;28;20121;-76
2022/01/31 07:05:01;;;;;;;3.60;0.63;;;17.00;60.00;;;;;;4992260;28;20061;-76
2022/01/31 07:07:28;;;;;;;3.90;0.82;;;17.10;60.20;;;;;;4978244;28;20084;-76
2022/01/31 07:09:54;;;;;;;2.25;0.82;;;17.10;60.30;;;;;;5010294;28;20038;-76
2022/01/31 07:12:23;;;;;;;2.83;0.77;;;17.20;60.30;;;;;;5011768;28;20026;-76
2022/01/31 07:14:49;;;;;;;3.20;0.80;;;17.20;60.30;;;;;;5003147;28;20549;-75
2022/01/31 07:17:14;;;;;;;3.75;1.05;;;17.20;60.30;;;;;;4992109;28;20105;-76
2022/01/31 07:19:42;;;;;;;3.25;0.73;;;17.20;60.20;;;;;;4992452;28;20022;-79
2022/01/31 07:22:11;;;;;;;4.40;0.88;;;17.20;60.20;;;;;;4991500;28;20029;-76
2022/01/31 07:27:04;;;;;;;4.22;1.10;;;17.20;60.00;;;;;;5011667;28;20403;-76
2022/01/31 07:29:30;;;;;;;2.55;0.80;;;17.20;60.00;;;;;;5011539;28;20038;-75
2022/01/31 07:32:00;;;;;;;3.70;1.08;;;17.20;60.00;;;;;;5011653;28;20022;-76
2022/01/31 07:34:26;;;;;;;2.95;0.90;;;17.20;60.00;;;;;;4978382;28;20113;-78
2022/01/31 07:36:52;;;;;;;3.55;0.85;;;17.20;59.90;;;;;;4992037;28;20158;-77
2022/01/31 07:39:18;;;;;;;5.03;0.90;;;17.20;59.90;;;;;;4991950;28;20394;-76
2022/01/31 07:41:46;;;;;;;4.00;0.90;;;17.20;59.80;;;;;;4996164;28;20086;-75
2022/01/31 07:44:12;;;;;;;3.22;1.00;;;17.20;59.80;;;;;;4996195;28;20026;-76
2022/01/31 07:46:38;;;;;;;3.72;1.00;;;17.20;59.70;;;;;;4995366;28;20033;-76
2022/01/31 07:49:05;;;;;;;6.03;0.80;;;17.20;59.60;;;;;;4977963;28;20046;-75
2022/01/31 07:51:30;;;;;;;3.60;0.77;;;17.10;59.60;;;;;;4995316;28;20433;-75
2022/01/31 07:53:56;;;;;;;4.03;1.00;;;17.10;59.60;;;;;;4997852;28;20036;-77
2022/01/31 07:56:22;;;;;;;4.38;1.00;;;17.10;59.50;;;;;;4995113;28;20018;-76
2022/01/31 07:58:48;;;;;;;4.20;0.90;;;17.10;59.40;;;;;;4999427;28;20101;-75
2022/01/31 08:01:14;;;;;;;3.40;1.05;;;17.10;59.30;;;;;;4996535;28;20494;-75
2022/01/31 08:03:40;;;;;;;3.35;0.90;;;17.10;59.20;;;;;;4995382;28;20030;-73
2022/01/31 08:06:06;;;;;;;4.13;0.80;;;17.00;59.20;;;;;;4998409;28;20026;-75
2022/01/31 08:08:34;;;;;;;3.90;1.25;;;17.00;59.20;;;;;;4994832;28;20038;-75
2022/01/31 08:11:02;;;;;;;2.63;0.98;;;17.00;59.10;;;;;;4977572;28;20030;-76
2022/01/31 08:13:28;;;;;;;3.63;1.08;;;17.00;59.20;;;;;;4994437;28;20437;-77
2022/01/31 08:16:09;;;;;;;3.15;0.90;;;17.00;59.20;;;;;;4991353;28;20121;-76
2022/01/31 08:18:40;;;;;;;5.45;1.13;;;17.00;59.30;;;;;;4992858;28;20031;-76
2022/01/31 08:21:07;;;;;;;12.57;3.42;;;16.90;59.30;;;;;;4993615;28;20041;-76
2022/01/31 08:23:34;;;;;;;7.72;1.23;;;16.90;60.00;;;;;;4993318;28;20018;-76
2022/01/31 08:26:02;;;;;;;5.68;1.10;;;16.90;60.70;;;;;;4993513;28;20042;-77
2022/01/31 08:28:36;;;;;;;4.57;1.30;;;16.90;60.60;;;;;;4976087;28;20077;-77
2022/01/31 08:31:07;;;;;;;5.40;1.75;;;16.90;60.30;;;;;;4991592;28;20023;-76
2022/01/31 08:33:47;;;;;;;4.82;1.55;;;16.90;60.00;;;;;;4975798;28;20069;-76
2022/01/31 08:36:13;;;;;;;8.02;1.33;;;16.90;59.90;;;;;;4993469;28;20022;-79
2022/01/31 08:38:42;;;;;;;8.32;1.67;;;16.90;61.30;;;;;;4993171;28;20027;-76
2022/01/31 08:41:09;;;;;;;4.28;1.38;;;16.90;61.60;;;;;;4974125;28;20026;-76
2022/01/31 08:43:36;;;;;;;7.35;1.42;;;16.80;60.80;;;;;;4993000;28;20425;-77
2022/01/31 08:46:03;;;;;;;8.25;1.52;;;16.80;60.40;;;;;;4989859;28;20027;-76
2022/01/31 08:48:30;;;;;;;7.35;1.75;;;16.80;60.30;;;;;;4993417;28;20402;-75
2022/01/31 08:50:56;;;;;;;3.65;1.10;;;16.80;60.10;;;;;;4992853;28;20504;-79
2022/01/31 08:53:22;;;;;;;9.70;1.70;;;16.80;60.00;;;;;;4992751;28;20031;-76
2022/01/31 08:55:54;;;;;;;7.30;1.25;;;16.80;60.00;;;;;;4992444;28;20022;-78
2022/01/31 08:58:21;;;;;;;6.47;1.40;;;16.80;59.90;;;;;;4995721;28;20030;-76
2022/01/31 09:00:49;;;;;;;6.47;1.50;;;16.70;59.90;;;;;;5012350;28;20025;-78
2022/01/31 09:05:42;;;;;;;4.25;1.48;;;16.70;59.80;;;;;;5013721;28;20024;-76
2022/01/31 09:08:07;;;;;;;3.60;1.67;;;16.70;59.70;;;;;;5006695;28;20401;-79
2022/01/31 09:10:34;;;;;;;9.68;1.80;;;16.70;59.70;;;;;;4994958;28;20525;-77
2022/01/31 09:13:00;;;;;;;6.30;1.65;;;16.70;59.70;;;;;;4994070;28;20022;-79
2022/01/31 09:15:25;;;;;;;5.75;1.63;;;16.70;59.70;;;;;;4976645;28;20030;-77
2022/01/31 09:17:51;;;;;;;6.22;2.25;;;16.60;59.60;;;;;;4993771;28;20670;-79
2022/01/31 09:20:17;;;;;;;5.38;1.55;;;16.60;59.60;;;;;;4993408;28;20479;-76
2022/01/31 09:22:43;;;;;;;5.53;1.40;;;16.60;59.70;;;;;;4978020;28;20030;-76
2022/01/31 09:25:10;;;;;;;9.63;2.00;;;16.60;59.60;;;;;;4992521;28;20041;-75
2022/01/31 09:27:36;;;;;;;7.13;1.88;;;16.60;59.60;;;;;;4976286;28;20053;-76
2022/01/31 09:30:07;;;;;;;7.57;1.70;;;16.60;59.50;;;;;;4981335;28;20113;-76
2022/01/31 09:32:33;;;;;;;6.05;1.45;;;16.60;59.40;;;;;;4992236;28;20498;-76
2022/01/31 09:34:59;;;;;;;9.27;1.90;;;16.60;59.40;;;;;;4993744;28;20026;-77
2022/01/31 09:37:25;;;;;;;6.07;1.80;;;16.60;59.40;;;;;;4993719;28;20026;-77
2022/01/31 09:39:51;;;;;;;8.15;1.95;;;16.60;59.40;;;;;;5006255;28;20092;-79
2022/01/31 09:42:28;;;;;;;7.45;1.83;;;16.60;59.40;;;;;;4998174;28;20043;-76
2022/01/31 09:47:33;;;;;;;7.00;1.50;;;16.50;59.40;;;;;;4993757;28;20481;-77
2022/01/31 09:49:59;;;;;;;7.20;1.73;;;16.50;59.40;;;;;;4976727;28;20034;-76
2022/01/31 09:52:25;;;;;;;6.30;1.65;;;16.40;59.30;;;;;;4993341;28;20049;-76
2022/01/31 09:54:50;;;;;;;8.73;1.65;;;16.40;59.30;;;;;;4976011;28;20481;-76
2022/01/31 09:57:19;;;;;;;7.15;1.45;;;16.40;59.30;;;;;;4996808;28;20026;-78
2022/01/31 09:59:45;;;;;;;5.93;1.52;;;16.40;59.40;;;;;;4992942;28;20069;-77
2022/01/31 10:02:12;;;;;;;4.80;1.40;;;16.30;59.30;;;;;;4988724;28;20030;-76
2022/01/31 10:04:44;;;;;;;7.75;1.55;;;16.30;59.40;;;;;;4998416;28;20490;-80
2022/01/31 10:07:09;;;;;;;4.82;1.30;;;16.30;59.40;;;;;;4981326;28;20030;-76
2022/01/31 10:09:35;;;;;;;5.10;1.27;;;16.30;59.40;;;;;;4992826;28;20034;-75
2022/01/31 10:12:18;;;;;;;6.32;1.30;;;16.30;59.40;;;;;;5007840;28;20030;-77
2022/01/31 10:17:41;;;;;;;5.43;1.45;;;16.20;59.30;;;;;;4993758;28;20604;-77
2022/01/31 10:20:30;;;;;;;4.90;1.90;;;16.20;59.40;;;;;;4988930;28;20038;-78
2022/01/31 10:23:16;;;;;;;5.93;1.38;;;16.20;59.40;;;;;;4992976;28;20060;-77
2022/01/31 10:25:43;;;;;;;4.20;1.27;;;16.20;59.40;;;;;;4974321;28;20121;-77
2022/01/31 10:28:15;;;;;;;6.05;1.25;;;16.20;59.40;;;;;;4975305;28;20044;-76
2022/01/31 10:30:43;;;;;;;5.75;1.63;;;16.20;59.40;;;;;;4991940;28;20042;-77
2022/01/31 10:33:10;;;;;;;4.63;1.52;;;16.10;59.40;;;;;;4992500;28;20018;-77
2022/01/31 10:35:38;;;;;;;5.00;1.77;;;16.10;59.40;;;;;;4981152;28;20512;-77
2022/01/31 10:38:13;;;;;;;7.22;1.73;;;16.10;59.30;;;;;;5012218;28;20029;-78
2022/01/31 10:57:01;;;;;;;6.32;1.65;;;16.00;59.30;;;;;;4992046;28;20206;-76
2022/01/31 10:59:35;;;;;;;9.75;2.00;;;15.90;59.20;;;;;;4992284;28;20049;-78
2022/01/31 11:02:03;;;;;;;5.78;1.38;;;16.00;59.30;;;;;;4991589;28;20069;-77
2022/01/31 11:04:39;;;;;;;6.25;1.90;;;15.90;59.20;;;;;;4975306;28;20034;-75
2022/01/31 11:07:08;;;;;;;8.82;1.73;;;16.00;59.20;;;;;;4992349;28;20045;-77
2022/01/31 11:09:34;;;;;;;5.50;1.30;;;16.10;58.90;;;;;;4992045;28;20046;-78
2022/01/31 11:12:01;;;;;;;8.10;2.10;;;16.20;58.70;;;;;;4974598;28;20034;-77
2022/01/31 11:14:27;;;;;;;5.95;1.52;;;16.30;58.40;;;;;;4992934;28;20037;-77
2022/01/31 11:16:55;;;;;;;5.63;1.38;;;16.40;58.00;;;;;;4981234;28;20088;-76
2022/01/31 11:19:32;;;;;;;5.72;1.67;;;16.50;58.30;;;;;;4996578;28;20022;-77
2022/01/31 11:22:02;;;;;;;5.80;1.63;;;16.70;57.50;;;;;;4995620;28;20041;-77
2022/01/31 11:24:32;;;;;;;4.85;1.77;;;16.80;57.10;;;;;;4996201;28;20425;-77
2022/01/31 11:27:09;;;;;;;3.70;1.20;;;17.00;56.80;;;;;;5012505;28;20038;-78
2022/01/31 11:29:40;;;;;;;6.35;1.77;;;17.10;56.40;;;;;;5015571;28;20030;-77
2022/01/31 11:32:07;;;;;;;3.50;1.17;;;17.30;56.10;;;;;;5007579;28;20101;-77
2022/01/31 11:34:37;;;;;;;8.05;2.15;;;17.50;55.60;;;;;;4993829;28;20026;-76
2022/01/31 11:37:03;;;;;;;8.52;1.42;;;17.70;55.00;;;;;;4993977;28;20027;-76
2022/01/31 11:39:30;;;;;;;5.22;1.33;;;18.10;54.40;;;;;;4982218;28;20022;-76
2022/01/31 11:42:01;;;;;;;8.60;1.83;;;19.20;53.20;;;;;;4977157;28;20080;-76
2022/01/31 11:44:42;;;;;;;9.30;1.77;;;;;;;;;;4976138;28;20390;-77
2022/01/31 11:47:09;;;;;;;9.55;2.13;;;;;;;;;;4974636;28;20122;-77
2022/01/31 11:49:50;;;;;;;6.35;1.88;;;;;;;;;;4991527;28;20042;-77
2022/01/31 11:52:17;;;;;;;10.25;2.08;;;21.00;49.70;;;;;;4995037;28;20045;-77
2022/01/31 11:54:50;;;;;;;14.10;2.33;;;23.00;44.80;;;;;;4994557;28;20061;-77
2022/01/31 11:57:19;;;;;;;17.80;3.30;;;21.60;47.30;;;;;;4976052;28;20070;-77
2022/01/31 11:59:56;;;;;;;23.35;2.90;;;20.70;48.90;;;;;;4991670;28;20026;-77
2022/01/31 12:02:24;;;;;;;16.60;3.10;;;20.10;50.50;;;;;;4995683;28;20026;-77
2022/01/31 12:04:51;;;;;;;20.25;3.85;;;19.70;51.50;;;;;;4987194;28;20084;-78
2022/01/31 12:07:36;;;;;;;21.92;3.13;;;19.50;52.10;;;;;;4995076;28;20026;-76
2022/01/31 12:10:02;;;;;;;27.42;2.60;;;19.30;52.50;;;;;;4978198;28;20066;-76
2022/01/31 12:12:37;;;;;;;19.15;2.55;;;19.10;52.80;;;;;;4977927;28;20445;-76
2022/01/31 12:15:43;;;;;;;14.43;3.10;;;18.90;53.30;;;;;;4998049;28;20033;-78
2022/01/31 12:24:07;;;;;;;33.28;3.42;;;18.40;54.90;;;;;;4993772;28;20049;-77
2022/01/31 12:26:32;;;;;;;13.98;2.92;;;18.30;55.50;;;;;;4980582;28;20073;-77
2022/01/31 12:29:01;;;;;;;13.02;2.95;;;18.30;56.10;;;;;;4977008;28;20082;-77
2022/01/31 12:31:33;;;;;;;14.00;2.58;;;18.50;56.30;;;;;;4979800;28;20032;-77
2022/01/31 12:33:59;;;;;;;17.10;2.63;;;18.70;55.40;;;;;;4994725;28;20040;-78
2022/01/31 12:36:45;;;;;;;10.02;2.45;;;18.70;55.40;;;;;;4994838;28;20019;-77
2022/01/31 12:39:37;;;;;;;13.48;3.13;;;18.70;55.80;;;;;;4992891;28;20034;-76
2022/01/31 12:42:44;;;;;;;15.35;2.55;;;18.70;55.80;;;;;;4991939;28;20405;-77
2022/01/31 12:45:14;;;;;;;11.73;2.10;;;18.80;55.80;;;;;;4990548;28;20041;-78
2022/01/31 12:48:19;;;;;;;11.00;2.38;;;18.80;55.90;;;;;;4975304;28;20037;-80
2022/01/31 12:50:51;;;;;;;8.63;2.20;;;18.90;55.70;;;;;;4990980;28;20029;-80
2022/01/31 12:53:22;;;;;;;8.07;1.67;;;18.90;55.70;;;;;;4992678;28;20480;-78
2022/01/31 12:56:05;;;;;;;8.70;1.85;;;18.90;55.50;;;;;;4990010;28;20026;-77
2022/01/31 12:58:40;;;;;;;7.38;1.63;;;19.00;55.40;;;;;;4991026;28;20030;-77
2022/01/31 13:01:16;;;;;;;8.77;2.17;;;19.00;55.20;;;;;;4992580;28;20441;-78
2022/01/31 13:03:51;;;;;;;7.38;1.48;;;19.00;55.30;;;;;;4991699;28;20056;-78
2022/01/31 13:06:41;;;;;;;12.30;2.25;;;19.00;55.40;;;;;;4993605;28;20053;-78
2022/01/31 13:09:11;;;;;;;9.10;1.90;;;18.90;55.50;;;;;;4992739;28;20046;-79
2022/01/31 13:11:45;;;;;;;11.15;2.42;;;18.90;55.70;;;;;;5003551;28;20037;-79
2022/01/31 13:14:21;;;;;;;10.88;2.40;;;18.80;55.70;;;;;;4994362;28;20026;-78
2022/01/31 13:17:05;;;;;;;6.88;1.70;;;18.70;55.80;;;;;;4992964;28;20105;-78
2022/01/31 13:19:34;;;;;;;8.45;2.25;;;18.60;55.80;;;;;;4993415;28;20022;-78
2022/01/31 13:22:13;;;;;;;5.22;1.55;;;18.60;55.90;;;;;;4994045;28;20121;-79
2022/01/31 13:24:47;;;;;;;5.78;1.80;;;18.50;55.90;;;;;;4994022;28;20061;-78
2022/01/31 13:27:16;;;;;;;8.52;1.77;;;18.50;56.00;;;;;;4993007;28;20022;-77
2022/01/31 13:29:44;;;;;;;7.75;2.20;;;18.50;55.90;;;;;;4992902;28;20034;-77
2022/01/31 13:32:13;;;;;;;5.45;1.58;;;18.40;56.00;;;;;;4986921;28;20117;-78